Map

Track Data

SID SEASON NUMBER BASIN SUBBASIN NAME ISO_TIME NATURE LAT LON WMO_WIND WMO_PRES WMO_AGENCY TRACK_TYPE DIST2LAND LANDFALL IFLAG USA_AGENCY USA_ATCF_ID USA_LAT USA_LON USA_RECORD USA_STATUS USA_WIND USA_PRES USA_SSHS USA_R34_NE USA_R34_SE USA_R34_SW USA_R34_NW USA_R50_NE USA_R50_SE USA_R50_SW USA_R50_NW USA_R64_NE USA_R64_SE USA_R64_SW USA_R64_NW USA_POCI USA_ROCI USA_RMW USA_EYE TOKYO_LAT TOKYO_LON TOKYO_GRADE TOKYO_WIND TOKYO_PRES TOKYO_R50_DIR TOKYO_R50_LONG TOKYO_R50_SHORT TOKYO_R30_DIR TOKYO_R30_LONG TOKYO_R30_SHORT TOKYO_LAND CMA_LAT CMA_LON CMA_CAT CMA_WIND CMA_PRES HKO_LAT HKO_LON HKO_CAT HKO_WIND HKO_PRES NEWDELHI_LAT NEWDELHI_LON NEWDELHI_GRADE NEWDELHI_WIND NEWDELHI_PRES NEWDELHI_CI NEWDELHI_DP NEWDELHI_POCI REUNION_LAT REUNION_LON REUNION_TYPE REUNION_WIND REUNION_PRES REUNION_TNUM REUNION_CI REUNION_RMW REUNION_R34_NE REUNION_R34_SE REUNION_R34_SW REUNION_R34_NW REUNION_R50_NE REUNION_R50_SE REUNION_R50_SW REUNION_R50_NW REUNION_R64_NE REUNION_R64_SE REUNION_R64_SW REUNION_R64_NW BOM_LAT BOM_LON BOM_TYPE BOM_WIND BOM_PRES BOM_TNUM BOM_CI BOM_RMW BOM_R34_NE BOM_R34_SE BOM_R34_SW BOM_R34_NW BOM_R50_NE BOM_R50_SE BOM_R50_SW BOM_R50_NW BOM_R64_NE BOM_R64_SE BOM_R64_SW BOM_R64_NW BOM_ROCI BOM_POCI BOM_EYE BOM_POS_METHOD BOM_PRES_METHOD NADI_LAT NADI_LON NADI_CAT NADI_WIND NADI_PRES WELLINGTON_LAT WELLINGTON_LON WELLINGTON_WIND WELLINGTON_PRES DS824_LAT DS824_LON DS824_STAGE DS824_WIND DS824_PRES TD9636_LAT TD9636_LON TD9636_STAGE TD9636_WIND TD9636_PRES TD9635_LAT TD9635_LON TD9635_WIND TD9635_PRES TD9635_ROCI NEUMANN_LAT NEUMANN_LON NEUMANN_CLASS NEUMANN_WIND NEUMANN_PRES MLC_LAT MLC_LON MLC_CLASS MLC_WIND MLC_PRES USA_GUST BOM_GUST BOM_GUST_PER REUNION_GUST REUNION_GUST_PER USA_SEAHGT USA_SEARAD_NE USA_SEARAD_SE USA_SEARAD_SW USA_SEARAD_NW STORM_SPEED STORM_DIR
1984214N12143 1984 52 WP MM FREDA 1984-08-01 00:00:00 NR 12.0000 143.000 main 1613 1613 __________O___ -1 12.0000 143.000 0 1 69
1984214N12143 1984 52 WP MM FREDA 1984-08-01 03:00:00 NR 12.0139 143.042 main 1613 1613 __________P___ -1 12.0139 143.042 0 1 66
1984214N12143 1984 52 WP MM FREDA 1984-08-01 06:00:00 NR 12.0277 143.068 main 1617 1617 __________P___ -1 12.0277 143.068 0 0 0
1984214N12143 1984 52 WP MM FREDA 1984-08-01 09:00:00 NR 12.0413 143.066 main 1617 1613 __________P___ -1 12.0413 143.066 0 1 313
1984214N12143 1984 52 WP MM FREDA 1984-08-01 12:00:00 NR 12.0545 143.019 main 1624 1620 __________P___ -1 12.0545 143.019 0 2 280
1984214N12143 1984 52 WP MM FREDA 1984-08-01 15:00:00 NR 12.0673 142.914 main 1620 1613 __________P___ -1 12.0673 142.914 0 3 275
1984214N12143 1984 52 WP MM FREDA 1984-08-01 18:00:00 NR 12.0793 142.736 main 1613 1606 __________P___ -1 12.0793 142.736 0 4 273
1984214N12143 1984 52 WP MM FREDA 1984-08-01 21:00:00 NR 12.0903 142.469 main 1606 1594 __________P___ -1 12.0903 142.469 0 6 272
1984214N12143 1984 52 WP MM FREDA 1984-08-02 00:00:00 NR 12.1000 142.100 main 1594 1581 __________O___ -1 12.1000 142.100 0 8 271
1984214N12143 1984 52 WP MM FREDA 1984-08-02 03:00:00 NR 12.1075 141.621 main 1576 1555 __________P___ -1 12.1075 141.621 0 10 271
1984214N12143 1984 52 WP MM FREDA 1984-08-02 06:00:00 NR 12.1111 141.057 main 1555 1532 __________P___ -1 12.1111 141.057 0 12 270
1984214N12143 1984 52 WP MM FREDA 1984-08-02 09:00:00 NR 12.1091 140.439 main 1528 1507 __________P___ -1 12.1091 140.439 0 12 269
1984214N12143 1984 52 WP MM FREDA 1984-08-02 12:00:00 NR 12.1000 139.800 main 1507 1458 __________O___ -1 12.1000 139.800 0 12 269
1984214N12143 1984 52 WP MM FREDA 1984-08-02 15:00:00 NR 12.0860 139.189 main 1458 1394 __________P___ -1 12.0860 139.189 0 12 268
1984214N12143 1984 52 WP MM FREDA 1984-08-02 18:00:00 NR 12.0646 138.565 main 1394 1328 __________P___ -1 12.0646 138.565 0 12 268
1984214N12143 1984 52 WP MM FREDA 1984-08-02 21:00:00 NR 12.0360 137.933 main 1317 1253 __________P___ -1 12.0360 137.933 0 12 267
1984214N12143 1984 52 WP MM FREDA 1984-08-03 00:00:00 NR 12.0000 137.300 main 1253 1190 __________O___ -1 12.0000 137.300 0 12 267
1984214N12143 1984 52 WP MM FREDA 1984-08-03 03:00:00 NR 11.9690 136.671 main 1190 1124 __________P___ -1 11.9690 136.671 0 12 267
1984214N12143 1984 52 WP MM FREDA 1984-08-03 06:00:00 NR 11.9295 136.043 main 1113 1061 __________P___ -1 11.9295 136.043 0 12 266
1984214N12143 1984 52 WP MM FREDA 1984-08-03 09:00:00 NR 11.8753 135.418 main 1050 974 __________P___ -1 11.8753 135.418 0 14 265
1984214N12143 1984 52 WP MM FREDA 1984-08-03 12:00:00 TS 11.8200 134.660 main 974 905 __O_______O___ -1 11.9000 134.100 0 19 1004 11.8000 134.800 6 14 257
1984214N12143 1984 52 WP MM FREDA 1984-08-03 15:00:00 TS 11.5516 134.019 main 894 833 __P_______P___ -1 11.4951 133.712 0 19 1004 11.5787 134.167 6 13 246
1984214N12143 1984 52 WP MM FREDA 1984-08-03 18:00:00 TS 11.2886 133.440 main 822 767 __O_______P___ -1 11.2000 133.300 0 19 1004 11.3550 133.545 6 12 251
1984214N12143 1984 52 WP MM FREDA 1984-08-03 21:00:00 TS 11.1656 132.900 main 767 718 __P_______P___ -1 11.1025 132.850 0 21 1004 11.2288 132.951 6 10 272
1984214N12143 1984 52 WP MM FREDA 1984-08-04 00:00:00 TS 11.3273 132.409 1004 tokyo main 718 680 OOOO______O___ jtwc_wp WP081984 11.3000 132.400 20 -1 12.1000 132.300 2 1004 0 0 0 11.2000 132.400 1 23 1004 11.2000 132.600 TD 25 1004 11.3000 132.400 1 20 11 302
1984214N12143 1984 52 WP MM FREDA 1984-08-04 03:00:00 TS 11.7234 131.993 main 680 646 PPPP______P___ WP081984 11.6827 131.948 20 -1 12.5002 131.885 2 1003 0 0 11.4475 131.978 1 26 1003 11.5800 132.310 TD 25 1003 11.7030 131.928 1 20 12 319
1984214N12143 1984 52 WP MM FREDA 1984-08-04 06:00:00 TS 12.2186 131.610 1003 tokyo main 646 625 OOOO______P___ jtwc_wp WP081984 12.2000 131.500 20 -1 12.9000 131.500 2 1003 0 0 0 11.8000 131.600 1 29 1003 12.0000 132.000 TD 25 1002 12.3040 131.493 1 20 13 325
1984214N12143 1984 52 WP MM FREDA 1984-08-04 09:00:00 TS 12.7670 131.244 main 621 596 PPPP______P___ WP081984 12.9274 131.058 20 -1 13.2999 131.157 2 1003 0 0 12.1199 131.285 1 29 1002 12.4850 131.657 TD 25 1002 13.0030 131.062 1 20 13 326
1984214N12143 1984 52 WP MM FREDA 1984-08-04 12:00:00 TS 13.3200 130.860 1003 tokyo main 598 567 OOOO______O___ jtwc_wp WP081984 13.7000 130.600 20 -1 13.7000 130.800 2 1003 0 0 0 12.5000 131.000 1 29 1002 13.0000 131.300 TD 25 1002 13.7000 130.600 1 20 13 323
1984214N12143 1984 52 WP MM FREDA 1984-08-04 15:00:00 TS 13.8225 130.439 main 560 541 PPPP______P___ WP081984 14.3448 130.130 22 -1 14.0850 130.365 2 1002 0 0 12.9400 130.707 1 29 1001 13.4999 130.965 TD 25 1002 14.2429 130.028 1 21 13 320
1984214N12143 1984 52 WP MM FREDA 1984-08-04 18:00:00 TS 14.3331 129.986 1002 tokyo main 541 521 OOOO______P___ jtwc_wp WP081984 14.9000 129.600 25 -1 14.5000 129.900 2 1002 0 0 0 13.5000 130.400 1 29 1000 14.0000 130.600 TD 25 1002 14.7657 129.428 1 22 14 319
1984214N12143 1984 52 WP MM FREDA 1984-08-04 21:00:00 TS 14.8761 129.492 main 527 515 PPPP______P___ WP081984 15.3576 128.957 25 -1 14.9925 129.442 2 1002 0 0 14.2425 130.050 1 29 1000 14.5074 130.172 TD 25 1002 15.2805 128.838 1 23 15 319
1984214N12143 1984 52 WP MM FREDA 1984-08-05 00:00:00 TS 15.4200 129.000 1002 tokyo main 520 499 OOOO______O___ jtwc_wp WP081984 15.8000 128.300 25 -1 15.5000 129.000 2 1002 0 0 0 15.0000 129.700 1 29 1000 15.0000 129.700 TD 25 1002 15.8000 128.300 1 25 14 320
1984214N12143 1984 52 WP MM FREDA 1984-08-05 03:00:00 TS 15.9474 128.553 main 503 488 PPPP______P___ WP081984 16.3350 127.683 27 -1 15.9573 128.600 2 1001 0 0 15.6172 129.430 1 29 999 15.4649 129.207 TD 27 1000 16.3625 127.847 1 26 13 321
1984214N12143 1984 52 WP MM FREDA 1984-08-05 06:00:00 TS 16.4458 128.130 1000 tokyo main 485 485 OOOO______P___ jtwc_wp WP081984 16.9000 127.200 30 -1 16.4000 128.200 2 1000 0 0 0 16.1000 129.100 1 29 998 15.9000 128.700 TD 30 998 16.9292 127.452 1 27 13 320
1984214N12143 1984 52 WP MM FREDA 1984-08-05 09:00:00 TS 16.9052 127.720 main 487 487 PPPP______P___ WP081984 17.4647 126.962 30 -1 16.8425 127.742 2 999 0 0 16.4376 128.587 1 29 997 16.2999 128.200 TD 30 998 17.4814 127.106 1 28 12 319
1984214N12143 1984 52 WP MM FREDA 1984-08-05 12:00:00 TS 17.3400 127.320 998 tokyo main 489 473 OOOO______O___ jtwc_wp WP081984 18.0000 126.800 30 -1 17.3000 127.300 2 998 0 0 0 16.7000 128.000 1 29 996 16.7000 127.700 TD 30 998 18.0000 126.800 1 30 12 318
1984214N12143 1984 52 WP MM FREDA 1984-08-05 15:00:00 TS 17.7563 126.905 main 475 443 PPPP______P___ WP081984 18.4726 126.500 32 -1 17.7999 126.912 2 998 0 0 16.9175 127.434 1 33 994 17.1350 127.177 TD 30 998 18.4565 126.501 1 32 11 319
1984214N12143 1984 52 WP MM FREDA 1984-08-05 18:00:00 TS 18.1959 126.528 998 tokyo main 443 412 OOOO______P___ jtwc_wp WP081984 18.9000 126.200 35 0 18.3000 126.600 2 998 0 0 0 17.3000 126.900 2 38 993 17.6000 126.700 TD 30 998 18.8796 126.239 1 35 12 326
1984214N12143 1984 52 WP MM FREDA 1984-08-05 21:00:00 TS 18.7055 126.222 main 412 397 PPPP______P___ WP081984 19.3149 125.977 37 0 18.7573 126.392 2 997 0 0 18.1050 126.406 2 38 992 18.0623 126.327 TD 32 996 19.2879 126.007 1 37 12 333
1984214N12143 1984 52 WP MM FREDA 1984-08-06 00:00:00 TS 19.2400 125.960 996 tokyo main 399 385 OOOO______O___ jtwc_wp WP081984 19.7000 125.800 40 0 19.2000 126.200 2 996 0 0 0 19.0000 126.000 2 38 992 18.6000 126.000 TS 35 995 19.7000 125.800 2 40 11 335
1984214N12143 1984 52 WP MM FREDA 1984-08-06 03:00:00 TS 19.7350 125.706 main 385 385 PPPP______P___ WP081984 20.0274 125.650 40 0 19.6276 125.893 2 994 0 0 19.6748 125.705 2 38 991 19.2475 125.635 TS 37 993 20.0975 125.650 2 41 11 336
1984214N12143 1984 52 WP MM FREDA 1984-08-06 06:00:00 TS 20.2418 125.483 45 992 tokyo main 391 388 OOOO______P___ jtwc_wp WP081984 20.4000 125.500 40 0 20.1000 125.600 3 45 992 0 9 200 200 0 20.2000 125.500 2 38 991 20.0000 125.300 TS 40 991 20.5091 125.514 2 42 11 340
1984214N12143 1984 52 WP MM FREDA 1984-08-06 09:00:00 TS 20.7717 125.294 main 413 412 PPPP______P___ WP081984 20.8900 125.315 42 0 20.6549 125.449 3 47 991 0 9 250 200 20.5424 125.342 2 43 988 20.8050 125.020 TS 42 989 20.9661 125.346 2 43 12 342
1984214N12143 1984 52 WP MM FREDA 1984-08-06 12:00:00 TS 21.3800 125.100 50 990 tokyo main 425 376 OOOO______O___ jtwc_wp WP081984 21.5000 125.100 45 0 21.3000 125.300 4 50 990 0 3 300 200 0 20.9000 125.200 3 48 985 21.7000 124.800 TS 45 987 21.5000 125.100 2 45 14 346
1984214N12143 1984 52 WP MM FREDA 1984-08-06 15:00:00 TS 22.1198 124.923 main 376 327 PPPP______P___ WP081984 22.2270 124.924 45 0 22.0042 125.111 4 50 987 0 3 300 200 21.4143 125.110 3 48 985 22.7593 124.724 TS 45 986 22.1943 124.749 2 47 16 343
1984214N12143 1984 52 WP MM FREDA 1984-08-06 18:00:00 TS 22.9314 124.582 50 985 tokyo main 327 217 OOOO______P___ jtwc_wp WP081984 23.0000 124.600 45 0 22.8000 124.700 4 50 985 0 3 300 200 0 22.2000 124.800 3 48 985 23.7000 124.500 TS 45 985 22.9568 124.309 2 50 19 331
1984214N12143 1984 52 WP MM FREDA 1984-08-06 21:00:00 TS 23.8127 123.897 main 217 121 PPPP______P___ WP081984 23.7673 124.006 50 0 23.7684 123.878 4 50 985 0 3 300 200 23.5337 123.988 3 53 985 24.2782 123.826 TS 47 984 23.7159 123.790 2 52 21 319
1984214N12143 1984 52 WP MM FREDA 1984-08-07 00:00:00 TS 24.5400 123.060 50 985 tokyo main 121 32 OOOO______O___ jtwc_wp WP081984 24.4000 123.200 55 0 24.6000 122.900 4 50 985 0 3 300 200 0 24.7000 123.000 3 58 985 24.6000 123.000 STS 50 984 24.4000 123.200 2 55 18 305
1984214N12143 1984 52 WP MM FREDA 1984-08-07 03:00:00 TS 24.8666 122.244 main 23 0 PPPP______P___ WP081984 24.7237 122.211 52 0 24.9977 122.008 4 50 985 0 3 300 200 24.9349 122.164 3 53 985 24.7723 122.311 STS 50 983 24.9044 122.527 2 55 15 291
1984214N12143 1984 52 WP MM FREDA 1984-08-07 06:00:00 TS 25.0654 121.520 50 985 tokyo main 0 0 OOOO______P___ jtwc_wp WP081984 25.0000 121.300 50 0 25.2000 121.300 4 50 985 0 3 300 200 0 24.9000 121.500 3 48 985 24.9000 121.700 STS 50 983 25.3269 121.798 2 55 12 296
1984214N12143 1984 52 WP MM FREDA 1984-08-07 09:00:00 TS 25.4015 121.012 main 39 39 PPPP______P___ WP081984 25.5263 120.782 52 0 25.4267 120.924 4 50 985 0 3 325 175 25.1967 121.112 3 48 986 25.1472 121.170 STS 47 984 25.7107 121.071 2 55 11 311
1984214N12143 1984 52 WP MM FREDA 1984-08-07 12:00:00 TS 25.8000 120.600 50 985 tokyo main 90 41 OOOO______O___ jtwc_wp WP081984 26.1000 120.400 55 0 25.7000 120.700 4 50 985 0 2 350 150 0 25.6000 120.800 3 48 987 25.5000 120.700 TS 45 985 26.1000 120.400 2 55 11 317
1984214N12143 1984 52 WP MM FREDA 1984-08-07 15:00:00 TS 26.2354 120.152 main 41 0 PPPP______P___ WP081984 26.5575 119.900 50 0 26.1047 120.437 4 50 985 0 2 350 150 26.0051 120.322 3 48 987 25.9547 120.257 TS 45 987 26.5551 119.843 2 51 12 319
1984214N12143 1984 52 WP MM FREDA 1984-08-07 18:00:00 TS 26.7252 119.690 50 985 tokyo main 0 0 OOOO______P___ jtwc_wp WP081984 27.0000 119.400 45 0 26.6000 120.100 4 50 985 0 2 350 150 0 26.5000 119.800 3 48 988 26.5000 119.800 TS 45 989 27.0258 119.351 2 47 13 321
1984214N12143 1984 52 WP MM FREDA 1984-08-07 21:00:00 TS 27.2620 119.217 main 0 0 PPPP______P___ WP081984 27.4849 118.927 42 0 27.1195 119.632 4 42 988 0 2 325 175 27.1269 119.337 3 32 991 27.0698 119.279 TS 40 990 27.5086 118.908 2 43 14 322
1984214N12143 1984 52 WP MM FREDA 1984-08-08 00:00:00 TS 27.8474 118.700 35 992 tokyo main 0 0 OOOO______O___ jtwc_wp WP081984 28.0000 118.500 40 0 27.7000 119.000 3 35 992 0 2 300 200 0 27.8000 118.800 0 17 995 27.7000 118.700 TS 35 992 28.0000 118.500 2 40 16 320
1984214N12143 1984 52 WP MM FREDA 1984-08-08 03:00:00 TS 28.4530 118.100 main 0 0 PPPP______P___ WP081984 28.5572 118.142 35 0 28.3737 118.129 3 993 0 2 28.4305 118.065 0 17 995 28.3857 118.067 TS 30 994 28.4842 118.079 2 36 16 318
1984214N12143 1984 52 WP MM FREDA 1984-08-08 06:00:00 TS 29.0240 117.515 994 tokyo main 0 0 OOOO______P___ jtwc_wp WP081984 29.1000 117.800 30 -1 29.0000 117.300 2 994 0 0 0 29.0000 117.300 0 17 995 29.1000 117.400 TD 25 996 28.9770 117.689 2 32 14 318
1984214N12143 1984 52 WP MM FREDA 1984-08-08 09:00:00 TS 29.4793 117.055 main 0 0 PPP_______P___ WP081984 29.5501 117.392 27 -1 29.4062 116.860 2 994 0 0 29.4798 116.639 0 17 995 TD 29.4813 117.329 2 28 12 320
1984214N12143 1984 52 WP MM FREDA 1984-08-08 12:00:00 TS 29.9250 116.650 994 tokyo main 0 0 OOO_______O___ jtwc_wp WP081984 30.0000 117.000 25 -1 29.8000 116.500 2 994 0 0 0 29.9000 116.100 0 17 996 30.0000 117.000 1 25 12 323
1984214N12143 1984 52 WP MM FREDA 1984-08-08 15:00:00 TS 30.4157 116.243 main 0 0 PPP_______P___ WP081984 30.5349 116.677 22 -1 30.3480 115.900 2 995 0 0 30.2770 115.711 0 17 996 30.5028 116.683 1 23 12 327
1984214N12143 1984 52 WP MM FREDA 1984-08-08 18:00:00 TS 30.9562 115.874 996 tokyo main 0 0 OOO_______P___ jtwc_wp WP081984 31.1000 116.400 20 -1 31.0000 115.300 2 996 0 0 0 30.7000 115.400 0 17 996 31.0247 116.396 1 22 13 332
1984214N12143 1984 52 WP MM FREDA 1984-08-08 21:00:00 TS 31.5616 115.522 main 0 0 PPP_______P___ WP081984 31.6349 116.142 20 -1 31.7649 114.774 2 996 0 0 31.2625 115.035 0 17 996 31.5842 116.136 1 21 14 337
1984214N12143 1984 52 WP MM FREDA 1984-08-09 00:00:00 TS 32.2000 115.250 996 tokyo main 0 0 OOO_______O___ jtwc_wp WP081984 32.2000 115.900 20 -1 32.5000 114.500 2 996 0 0 0 31.9000 114.700 0 17 996 32.2000 115.900 1 20 13 343
1984214N12143 1984 52 WP MM FREDA 1984-08-09 03:00:00 TS 32.8004 115.072 main 0 0 PPP_______P___ WP081984 32.8050 115.635 20 -1 33.0000 114.651 2 996 0 0 32.5122 114.317 0 17 996 32.8845 115.684 1 20 13 350
1984214N12143 1984 52 WP MM FREDA 1984-08-09 06:00:00 TS 33.4450 114.990 996 tokyo main 0 0 OOO_______P___ jtwc_wp WP081984 33.5000 115.400 20 -1 33.5000 115.000 2 996 0 0 0 33.2000 114.200 0 17 997 33.6252 115.483 1 20 14 359
1984214N12143 1984 52 WP MM FREDA 1984-08-09 09:00:00 TS 34.1963 115.047 main 0 0 PPP_______P___ WP081984 34.3198 115.147 20 -1 34.1747 115.214 2 996 0 0 33.9910 114.657 0 17 997 34.4034 115.290 1 20 16 9
1984214N12143 1984 52 WP MM FREDA 1984-08-09 12:00:00 TS 35.0333 115.300 996 tokyo main 0 0 OOO_______O___ jtwc_wp WP081984 35.2000 115.100 20 -1 35.0000 115.500 2 996 0 0 0 34.9000 115.300 0 17 997 35.2000 115.100 1 20 19 18
1984214N12143 1984 52 WP MM FREDA 1984-08-09 15:00:00 TS 35.9592 115.752 main 0 0 PPP___________ WP081984 36.0609 115.431 20 -1 35.9631 115.998 2 996 0 0 35.9045 115.667 0 17 996 1 21 21
1984214N12143 1984 52 WP MM FREDA 1984-08-09 18:00:00 TS 36.9889 116.222 996 tokyo main 0 0 OOO___________ jtwc_wp WP081984 36.9000 116.000 20 -1 37.0000 116.500 2 996 0 0 0 37.0000 116.000 0 17 996 1 22 15
1984214N12143 1984 52 WP MM FREDA 1984-08-09 21:00:00 TS 38.0761 116.480 main 0 0 _PP___________ WP081984 -1 37.9982 116.682 2 995 0 0 38.1541 116.278 0 23 994 1 22 15
1984214N12143 1984 52 WP MM FREDA 1984-08-10 00:00:00 TS 39.1500 116.950 994 tokyo main 0 0 _OO___________ -1 39.0000 117.000 2 994 0 0 0 39.3000 116.900 1 29 993 25 30
1984214N12143 1984 52 WP MM FREDA 1984-08-10 03:00:00 TS 40.2239 118.092 main 0 0 _PP___________ -1 40.0740 117.809 2 994 0 0 40.3738 118.374 1 29 994 28 44
1984214N12143 1984 52 WP MM FREDA 1984-08-10 06:00:00 MX 41.1500 119.500 994 tokyo main 0 0 _OO___________ -1 41.0000 119.000 2 994 0 0 0 41.3000 120.000 9 29 995 25 51
1984214N12143 1984 52 WP MM FREDA 1984-08-10 09:00:00 MX 41.8155 120.703 main 0 0 _PP___________ -1 41.5756 120.430 2 995 0 0 42.0555 120.975 9 29 995 22 56
1984214N12143 1984 52 WP MM FREDA 1984-08-10 12:00:00 ET 42.3500 121.900 996 tokyo main 0 0 _OO___________ -1 42.0000 122.000 6 996 0 0 0 42.7000 121.800 9 29 995 21 59
1984214N12143 1984 52 WP MM FREDA 1984-08-10 15:00:00 ET 42.9023 123.177 main 0 0 _PP___________ -1 42.4981 123.502 6 996 0 0 43.3066 122.851 9 29 996 22 60
1984214N12143 1984 52 WP MM FREDA 1984-08-10 18:00:00 ET 43.4500 124.500 996 tokyo main 0 0 _OO___________ -1 43.0000 125.000 6 996 0 0 0 43.9000 124.000 9 29 998 21 58
1984214N12143 1984 52 WP MM FREDA 1984-08-10 21:00:00 ET 44.0425 125.644 main 0 0 _PP___________ -1 43.4910 126.357 6 996 0 0 44.5941 124.932 9 29 998 23 60
1984214N12143 1984 52 WP MM FREDA 1984-08-11 00:00:00 ET 44.6000 127.250 996 tokyo main 0 0 _OO___________ -1 44.0000 128.000 6 996 0 0 0 45.2000 126.500 9 29 998 33 74
1984214N12143 1984 52 WP MM FREDA 1984-08-11 03:00:00 ET 44.9459 130.075 main 0 0 _PP___________ -1 44.4368 130.504 6 996 0 0 45.4550 129.647 9 29 997 41 80
1984214N12143 1984 52 WP MM FREDA 1984-08-11 06:00:00 ET 45.3000 133.000 996 tokyo main 0 0 _OO___________ -1 45.0000 133.000 6 996 0 0 0 45.6000 133.000 9 29 996 35 72
1984214N12143 1984 52 WP MM FREDA 1984-08-11 09:00:00 ET 46.0509 134.787 main 0 0 _PP___________ -1 46.0539 134.422 6 997 0 0 46.0478 135.153 9 996 28 59
1984214N12143 1984 52 WP MM FREDA 1984-08-11 12:00:00 ET 46.7500 136.500 998 tokyo main 0 0 _OO___________ -1 47.0000 136.000 6 998 0 0 0 46.5000 137.000 9 996 30 73
1984214N12143 1984 52 WP MM FREDA 1984-08-11 15:00:00 ET 46.9127 139.010 main 31 30 _PP___________ -1 47.1619 138.867 6 997 0 0 46.6634 139.153 9 995 35 88
1984214N12143 1984 52 WP MM FREDA 1984-08-11 18:00:00 ET 46.8500 141.700 996 tokyo main 22 0 _OO___________ -1 47.0000 142.000 6 996 0 0 0 46.7000 141.400 9 995 36 91
1984214N12143 1984 52 WP MM FREDA 1984-08-11 21:00:00 ET 46.8567 144.264 main 64 64 _PP___________ -1 46.9977 144.723 6 995 0 0 46.7158 143.804 9 994 33 90
1984214N12143 1984 52 WP MM FREDA 1984-08-12 00:00:00 ET 46.8500 146.550 994 tokyo main 203 149 _OO___________ -1 47.0000 147.000 6 994 0 0 0 46.7000 146.100 9 994 28 90
1984214N12143 1984 52 WP MM FREDA 1984-08-12 03:00:00 ET 46.8390 148.356 main 144 83 _PP___________ -1 46.9908 148.649 6 993 0 0 46.6873 148.063 9 992 23 90
1984214N12143 1984 52 WP MM FREDA 1984-08-12 06:00:00 ET 46.8500 149.900 992 tokyo main 91 77 _OO___________ -1 47.0000 150.000 6 992 0 0 0 46.7000 149.800 9 990 21 90
1984214N12143 1984 52 WP MM FREDA 1984-08-12 09:00:00 ET 46.8272 151.472 main 114 114 _PP___________ -1 46.9232 151.506 6 990 0 0 46.7312 151.438 9 989 21 88
1984214N12143 1984 52 WP MM FREDA 1984-08-12 12:00:00 ET 46.9143 153.000 988 tokyo main 217 217 _OO___________ -1 47.0000 153.000 6 988 0 0 0 46.8000 153.000 9 988 21 77
1984214N12143 1984 52 WP MM FREDA 1984-08-12 15:00:00 ET 47.2980 154.522 main 306 246 _PP___________ -1 47.4981 154.490 6 988 0 0 46.8978 154.586 9 987 22 67
1984214N12143 1984 52 WP MM FREDA 1984-08-12 18:00:00 ET 47.8000 156.040 988 tokyo main 248 241 _OO___________ -1 48.0000 156.000 6 988 0 0 0 47.0000 156.200 9 986 22 69
1984214N12143 1984 52 WP MM FREDA 1984-08-12 21:00:00 ET 48.0755 157.581 main 263 263 _P____________ -1 48.0755 157.581 6 988 0 0 9 20 84
1984214N12143 1984 52 WP MM FREDA 1984-08-13 00:00:00 ET 48.0000 159.000 988 tokyo main 331 331 _O____________ -1 48.0000 159.000 6 988 0 0 0 17 93
1984214N12143 1984 52 WP MM FREDA 1984-08-13 03:00:00 ET 47.9968 160.075 main 390 390 _P____________ -1 47.9968 160.075 6 988 0 0 13 90
1984214N12143 1984 52 WP MM FREDA 1984-08-13 06:00:00 ET 48.0000 161.000 988 tokyo main 442 442 _O____________ -1 48.0000 161.000 6 988 0 0 0 13 87
1984214N12143 1984 52 WP MM FREDA 1984-08-13 09:00:00 ET 48.0757 162.072 main 490 490 _P____________ -1 48.0757 162.072 6 988 0 0 13 90
1984214N12143 1984 52 WP MM FREDA 1984-08-13 12:00:00 ET 48.0000 163.000 988 tokyo main 540 540 _O____________ -1 48.0000 163.000 6 988 0 0 0 11 117
1984214N12143 1984 52 WP MM FREDA 1984-08-13 15:00:00 ET 47.5734 163.576 main 603 603 _P____________ -1 47.5734 163.576 6 990 0 0 12 146
1984214N12143 1984 52 WP MM FREDA 1984-08-13 18:00:00 ET 47.0000 164.000 992 tokyo main 673 673 _O____________ -1 47.0000 164.000 6 992 0 0 0 12 150
1984214N12143 1984 52 WP MM FREDA 1984-08-13 21:00:00 ET 46.4998 164.499 main 740 740 _P____________ -1 46.4998 164.499 6 994 0 0 12 145
1984214N12143 1984 52 WP MM FREDA 1984-08-14 00:00:00 ET 46.0000 165.000 996 tokyo main 808 808 _O____________ -1 46.0000 165.000 6 996 0 0 0 12 143
1984214N12143 1984 52 WP MM FREDA 1984-08-14 03:00:00 ET 45.5004 165.576 main 880 880 _P____________ -1 45.5004 165.576 6 996 0 0 12 145
1984214N12143 1984 52 WP MM FREDA 1984-08-14 06:00:00 ET 45.0000 166.000 996 tokyo main 943 943 _O____________ -1 45.0000 166.000 6 996 0 0 0 11 161
1984214N12143 1984 52 WP MM FREDA 1984-08-14 09:00:00 ET 44.4997 166.073 main 991 991 _P____________ -1 44.4997 166.073 6 998 0 0 10 179
1984214N12143 1984 52 WP MM FREDA 1984-08-14 12:00:00 ET 44.0000 166.000 1000 tokyo main 1024 1024 _O____________ -1 44.0000 166.000 6 1000 0 0 0 9 183
1984214N12143 1984 52 WP MM FREDA 1984-08-14 15:00:00 ET 43.5749 166.000 main 1057 1057 _P____________ -1 43.5749 166.000 6 1001 0 0 10 179
1984214N12143 1984 52 WP MM FREDA 1984-08-14 18:00:00 ET 43.0000 166.000 1002 tokyo main 1107 1107 _O____________ -1 43.0000 166.000 6 1002 0 0 0 15 0
1984214N12143 1984 52 WP MM FREDA 1984-08-14 21:00:00 ET 42.0749 166.000 main 1185 1185 _P____________ -1 42.0749 166.000 6 1003 0 0 20 0
1984214N12143 1984 52 WP MM FREDA 1984-08-15 00:00:00 ET 41.0000 166.000 1004 tokyo main 1284 1284 _O____________ -1 41.0000 166.000 6 1004 0 0 0 22 179
1984214N12143 1984 52 WP MM FREDA 1984-08-15 03:00:00 ET 39.9251 166.000 main 1388 1388 _P____________ -1 39.9251 166.000 6 1004 0 0 20 0
1984214N12143 1984 52 WP MM FREDA 1984-08-15 06:00:00 ET 39.0000 166.000 1004 tokyo main 1474 1474 _O____________ -1 39.0000 166.000 6 1004 0 0 0 15 182
1984214N12143 1984 52 WP MM FREDA 1984-08-15 09:00:00 ET 38.4247 165.924 main 1528 1528 _P____________ -1 38.4247 165.924 6 1004 0 0 10 179
1984214N12143 1984 52 WP MM FREDA 1984-08-15 12:00:00 ET 38.0000 166.000 1004 tokyo main 1563 1563 _O____________ -1 38.0000 166.000 6 1004 0 0 0 11 158
1984214N12143 1984 52 WP MM FREDA 1984-08-15 15:00:00 ET 37.4254 166.427 main 1633 1633 _P____________ -1 37.4254 166.427 6 1004 0 0 13 142
1984214N12143 1984 52 WP MM FREDA 1984-08-15 18:00:00 ET 37.0000 167.000 1004 tokyo main 1703 1703 _O____________ -1 37.0000 167.000 6 1004 0 0 0 10 119
1984214N12143 1984 52 WP MM FREDA 1984-08-15 21:00:00 ET 36.9254 167.573 main 1747 1745 _P____________ -1 36.9254 167.573 6 1004 0 0 8 90
1984214N12143 1984 52 WP MM FREDA 1984-08-16 00:00:00 ET 37.0000 168.000 1004 tokyo main 1754 1754 _O____________ -1 37.0000 168.000 6 1004 0 0 0 4 80
1984214N12143 1984 52 WP MM FREDA 1984-08-16 03:00:00 ET 36.9997 168.075 main 1758 1754 _P____________ -1 36.9997 168.075 6 1005 0 0 0 0
1984214N12143 1984 52 WP MM FREDA 1984-08-16 06:00:00 ET 37.0000 168.000 1006 tokyo main 1754 1754 _O____________ -1 37.0000 168.000 6 1006 0 0 0 1 270
1984214N12143 1984 52 WP MM FREDA 1984-08-16 09:00:00 ET 37.0000 168.000 main 1754 1754 _P____________ -1 37.0000 168.000 6 1006 0 0 0 0
1984214N12143 1984 52 WP MM FREDA 1984-08-16 12:00:00 ET 37.0000 168.000 1006 tokyo main 1754 1754 _O____________ -1 37.0000 168.000 6 1006 0 0 0 0 0
1984214N12143 1984 52 WP MM FREDA 1984-08-16 15:00:00 ET 37.0000 168.000 main 1754 1754 _P____________ -1 37.0000 168.000 6 1006 0 0 0 0
1984214N12143 1984 52 WP MM FREDA 1984-08-16 18:00:00 ET 37.0000 168.000 1006 tokyo main 1754 1754 _O____________ -1 37.0000 168.000 6 1006 0 0 0 0 0
1984214N12143 1984 52 WP MM FREDA 1984-08-16 21:00:00 ET 37.0000 168.000 main 1754 1754 _P____________ -1 37.0000 168.000 6 1006 0 0 0 0
1984214N12143 1984 52 WP MM FREDA 1984-08-17 00:00:00 ET 37.0000 168.000 1006 tokyo main 1754 1754 _O____________ -1 37.0000 168.000 6 1006 0 0 0 1 161
1984214N12143 1984 52 WP MM FREDA 1984-08-17 03:00:00 ET 36.9250 168.000 main 1764 1754 _P____________ -1 36.9250 168.000 6 1007 0 0 0 0
1984214N12143 1984 52 WP MM FREDA 1984-08-17 06:00:00 ET 37.0000 168.000 1008 tokyo main 1754 1725 _O____________ -1 37.0000 168.000 6 1008 0 0 0 4 0
1984214N12143 1984 52 WP MM FREDA 1984-08-17 09:00:00 ET 37.3501 168.000 main 1715 1658 _P____________ -1 37.3501 168.000 6 1009 0 0 10 1
1984214N12143 1984 52 WP MM FREDA 1984-08-17 12:00:00 ET 38.0000 168.000 1010 tokyo main 1658 1564 _O____________ -1 38.0000 168.000 6 1010 0 0 0 17 1
1984214N12143 1984 52 WP MM FREDA 1984-08-17 15:00:00 ET 39.0750 168.000 main 1555 1472 _P____________ -1 39.0750 168.000 6 1010 0 0 20 0
1984214N12143 1984 52 WP MM FREDA 1984-08-17 18:00:00 ET 40.0000 168.000 1010 tokyo main 1472 1458 _O____________ -1 40.0000 168.000 6 1010 0 0 0 9 357
1984214N12143 1984 52 WP MM FREDA 1984-08-17 21:00:00 ET 39.9996 167.927 main 1467 1467 _P____________ -1 39.9996 167.927 6 1011 0 0 0 0
1984214N12143 1984 52 WP MM FREDA 1984-08-18 00:00:00 ET 40.0000 168.000 1012 tokyo main 1472 1427 _O____________ -1 40.0000 168.000 6 1012 0 0 0 10 27
1984214N12143 1984 52 WP MM FREDA 1984-08-18 03:00:00 ET 40.8512 168.494 main 1418 1361 _P____________ -1 40.8512 168.494 6 1010 0 0 21 21
1984214N12143 1984 52 WP MM FREDA 1984-08-18 06:00:00 ET 42.0000 169.000 1008 tokyo main 1353 1264 _O____________ -1 42.0000 169.000 6 1008 0 0 0 23 10
1984214N12143 1984 52 WP MM FREDA 1984-08-18 09:00:00 ET 43.0743 169.006 main 1255 1177 _P____________ -1 43.0743 169.006 6 1008 0 0 20 0
1984214N12143 1984 52 WP MM FREDA 1984-08-18 12:00:00 ET 44.0000 169.000 1008 tokyo main 1177 1152 _O____________ -1 44.0000 169.000 6 1008 0 0 0 14 10
1984214N12143 1984 52 WP MM FREDA 1984-08-18 15:00:00 ET 44.4991 169.355 main 1157 1147 _P____________ -1 44.4991 169.355 6 1007 0 0 12 36
1984214N12143 1984 52 WP MM FREDA 1984-08-18 18:00:00 ET 45.0000 170.000 1006 tokyo main 1148 1101 _O____________ -1 45.0000 170.000 6 1006 0 0 0 18 35
1984214N12143 1984 52 WP MM FREDA 1984-08-18 21:00:00 ET 45.9986 170.846 main 1098 1074 _P____________ -1 45.9986 170.846 6 1003 0 0 24 35
1984214N12143 1984 52 WP MM FREDA 1984-08-19 00:00:00 ET 47.0000 172.000 1000 tokyo main 1080 1080 _O____________ -1 47.0000 172.000 6 1000 0 0 0 24 49
1984214N12143 1984 52 WP MM FREDA 1984-08-19 03:00:00 ET 47.5781 173.503 main 1113 1113 _P____________ -1 47.5781 173.503 6 999 0 0 23 64
1984214N12143 1984 52 WP MM FREDA 1984-08-19 06:00:00 ET 48.0000 175.000 998 tokyo main 1157 1157 _O____________ -1 48.0000 175.000 6 998 0 0 0 19 63
1984214N12143 1984 52 WP MM FREDA 1984-08-19 09:00:00 ET 48.4197 176.012 main 1168 1077 _P____________ -1 48.4197 176.012 6 997 0 0 17 53
1984214N12143 1984 52 WP MM FREDA 1984-08-19 12:00:00 ET 49.0000 177.000 996 tokyo main 1071 947 _O____________ -1 49.0000 177.000 6 996 0 0 0 21 46
1984214N12143 1984 52 WP MM FREDA 1984-08-19 15:00:00 ET 49.9074 178.352 main 936 795 _P____________ -1 49.9074 178.352 6 995 0 0 28 44
1984214N12143 1984 52 EP CP FREDA 1984-08-19 18:00:00 ET 51.0000 180.000 994 tokyo main 784 _O____________ -1 51.0000 180.000 6 994 0 0 0 30 44

Digital Typhoon Data and Search

About IBTrACS Database

This database is a web-friendly format of International Best Track Archive for Climate Stewardship (IBTrACS), a global best track data archive curated by NOAA dating back to 1842.

Updated: 2021-10-21